Language selection

My Weather Profile Weather Topics  | 

Pacific - North Coast: Past 24 Hour Conditions

 

West Sea Otter - 46204

10:00 PM PST 08 December 2022Buoy position: 51.4N 128.69W
Disclaimer

This table is a summary of hourly weather conditions for the past 24 hours.
Please note that these observations might not always be representative of weather conditions over their associated marine area.

Date / Time
(PST)
Wind(knots) Wave height(m) Wave period(s) Pressure(kPa) Air tempC) Water tempC)
08 December 2022
22:00 SSW 15 gust 18 4.5 11.6 100.7 6 8
21:00 S 11 gust 16 4.4 12.8 100.8 5 8
20:00 SW 23 gust 30 4.2 12.2 100.7 5 8
19:00 SSW 15 gust 21 4.4 13.5 100.8 6 8
18:00 S 12 gust 15 4.1 12.8 100.8 5 8
17:00 SSW 11 gust 15 4.1 12.2 100.8 5 8
16:00 SSW 13 gust 17 3.6 13.5 100.8 6 8
15:00 SW 16 N/A N/A 100.8 6 N/A
14:00 S 11 gust 15 4.3 13.5 100.8 5 9
13:00 WSW 19 gust 26 4.6 13.5 100.8 4 9
12:00 SW 17 gust 22 4.9 12.8 100.8 6 9
11:00 SW 14 gust 23 5.3 14.2 100.7 5 9
10:00 SW 19 gust 27 5.1 14.2 100.7 6 8
9:00 WSW 21 gust 26 5.6 13.5 100.6 5 8
8:00 WSW 14 gust 19 5.7 14.2 100.6 6 8
7:00 SW 17 gust 23 5.2 13.5 100.6 7 8
6:00 WSW 17 gust 22 4.9 11.6 100.5 6 9
5:00 WSW 23 gust 28 4.6 10.7 100.4 7 9
4:00 SW 21 gust 27 3.9 10.2 100.3 6 9
3:00 SW 23 gust 32 3.8 9.1 100.1 6 9
2:00 SSW 24 gust 32 3.6 9.5 99.9 7 9
1:00 N/A N/A N/A N/A N/A N/A
0:00 ESE 26 gust 33 3.2 8.3 99.9 6 9
07 December 2022
23:00 ESE 27 gust 36 3.4 8.3 99.9 6 9
22:00 ESE 26 gust 33 3.8 8.8 99.9 5 9

Zoom-in to make a selection

Map of Pacific - North Coast marine weather areas Middle Nomad - 46004 South Nomad - 46036 Dixon Entrance Central - 46145 South Moresby - 46147 Nanakwa Shoal - 46181 North Hecate Strait - 46183 North Nomad - 46184 South Hecate Strait - 46185 West Sea Otter - 46204 West Dixon Entrance - 46205 East Dellwood - 46207 West Moresby - 46208 Sartine Island Cape St.James Kindakun Rocks Langara Island Masset Municipal Airport Rose Spit Sandspit Airport Bella Bella Airport Bella Coola Airport Bonilla Island Cathedral Point Cumshewa Island Grey Islet Holland Rock Lucy Islands Lightstation Prince Rupert Airport
Legend:
buoy Buoy
land station Land Station

Pacific - North Coast Area

Another Region

What we are doing

Date modified: